sensor_id;sensor_type;location;lat;lon;timestamp;P1;durP1;ratioP1;P2;durP2;ratioP2
11608;SDS011;5860;52.018;8.536;2023-07-13T00:00:27;3.80;;;1.97;;
11608;SDS011;5860;52.018;8.536;2023-07-13T00:02:53;7.20;;;2.77;;
11608;SDS011;5860;52.018;8.536;2023-07-13T00:05:21;5.17;;;2.03;;
11608;SDS011;5860;52.018;8.536;2023-07-13T00:07:52;3.50;;;2.20;;
11608;SDS011;5860;52.018;8.536;2023-07-13T00:10:19;6.83;;;2.70;;
11608;SDS011;5860;52.018;8.536;2023-07-13T00:12:46;7.00;;;2.17;;
11608;SDS011;5860;52.018;8.536;2023-07-13T00:15:14;3.60;;;2.37;;
11608;SDS011;5860;52.018;8.536;2023-07-13T00:17:50;4.27;;;2.60;;
11608;SDS011;5860;52.018;8.536;2023-07-13T00:20:21;3.13;;;2.17;;
11608;SDS011;5860;52.018;8.536;2023-07-13T00:22:51;6.80;;;2.53;;
11608;SDS011;5860;52.018;8.536;2023-07-13T00:25:23;5.27;;;2.00;;
11608;SDS011;5860;52.018;8.536;2023-07-13T00:27:50;5.30;;;2.30;;
11608;SDS011;5860;52.018;8.536;2023-07-13T00:30:17;5.63;;;2.77;;
11608;SDS011;5860;52.018;8.536;2023-07-13T00:32:45;3.97;;;2.23;;
11608;SDS011;5860;52.018;8.536;2023-07-13T00:35:13;5.13;;;2.50;;
11608;SDS011;5860;52.018;8.536;2023-07-13T00:37:41;6.87;;;2.57;;
11608;SDS011;5860;52.018;8.536;2023-07-13T00:40:10;5.20;;;2.63;;
11608;SDS011;5860;52.018;8.536;2023-07-13T00:42:39;6.97;;;2.50;;
11608;SDS011;5860;52.018;8.536;2023-07-13T00:46:10;6.10;;;2.30;;
11608;SDS011;5860;52.018;8.536;2023-07-13T00:47:54;6.87;;;2.53;;
11608;SDS011;5860;52.018;8.536;2023-07-13T00:50:23;6.47;;;2.30;;
11608;SDS011;5860;52.018;8.536;2023-07-13T00:52:52;6.30;;;2.37;;
11608;SDS011;5860;52.018;8.536;2023-07-13T00:55:21;6.83;;;2.23;;
11608;SDS011;5860;52.018;8.536;2023-07-13T00:57:49;5.43;;;2.37;;
11608;SDS011;5860;52.018;8.536;2023-07-13T01:00:15;4.23;;;2.33;;
11608;SDS011;5860;52.018;8.536;2023-07-13T01:02:45;3.93;;;2.40;;
11608;SDS011;5860;52.018;8.536;2023-07-13T01:05:16;6.20;;;2.43;;
11608;SDS011;5860;52.018;8.536;2023-07-13T01:07:45;5.50;;;2.37;;
11608;SDS011;5860;52.018;8.536;2023-07-13T01:10:15;8.33;;;2.40;;
11608;SDS011;5860;52.018;8.536;2023-07-13T01:12:42;4.83;;;2.17;;
11608;SDS011;5860;52.018;8.536;2023-07-13T01:18:04;4.77;;;2.70;;
11608;SDS011;5860;52.018;8.536;2023-07-13T01:20:33;5.53;;;2.33;;
11608;SDS011;5860;52.018;8.536;2023-07-13T01:23:04;4.47;;;2.40;;
11608;SDS011;5860;52.018;8.536;2023-07-13T01:25:36;7.13;;;2.63;;
11608;SDS011;5860;52.018;8.536;2023-07-13T01:28:04;4.23;;;2.70;;
11608;SDS011;5860;52.018;8.536;2023-07-13T01:30:32;4.33;;;2.80;;
11608;SDS011;5860;52.018;8.536;2023-07-13T01:32:59;5.83;;;2.90;;
11608;SDS011;5860;52.018;8.536;2023-07-13T01:35:26;8.47;;;3.13;;
11608;SDS011;5860;52.018;8.536;2023-07-13T01:37:53;5.00;;;2.80;;
11608;SDS011;5860;52.018;8.536;2023-07-13T01:40:20;5.83;;;3.00;;
11608;SDS011;5860;52.018;8.536;2023-07-13T01:42:47;5.83;;;2.67;;
11608;SDS011;5860;52.018;8.536;2023-07-13T01:45:14;6.07;;;2.60;;
11608;SDS011;5860;52.018;8.536;2023-07-13T01:47:41;5.73;;;2.70;;
11608;SDS011;5860;52.018;8.536;2023-07-13T01:50:08;5.00;;;2.40;;
11608;SDS011;5860;52.018;8.536;2023-07-13T01:52:36;7.60;;;2.83;;
11608;SDS011;5860;52.018;8.536;2023-07-13T01:55:03;5.07;;;2.80;;
11608;SDS011;5860;52.018;8.536;2023-07-13T01:57:30;6.90;;;2.83;;
11608;SDS011;5860;52.018;8.536;2023-07-13T01:59:57;6.27;;;3.40;;
11608;SDS011;5860;52.018;8.536;2023-07-13T02:02:24;6.60;;;2.63;;
11608;SDS011;5860;52.018;8.536;2023-07-13T02:04:51;9.47;;;2.80;;
11608;SDS011;5860;52.018;8.536;2023-07-13T02:07:18;5.73;;;2.90;;
11608;SDS011;5860;52.018;8.536;2023-07-13T02:09:44;6.37;;;3.00;;
11608;SDS011;5860;52.018;8.536;2023-07-13T02:12:11;3.80;;;3.00;;
11608;SDS011;5860;52.018;8.536;2023-07-13T02:14:41;6.30;;;2.77;;
11608;SDS011;5860;52.018;8.536;2023-07-13T02:17:09;5.13;;;3.03;;
11608;SDS011;5860;52.018;8.536;2023-07-13T02:19:36;7.23;;;2.93;;
11608;SDS011;5860;52.018;8.536;2023-07-13T02:22:03;5.00;;;2.63;;
11608;SDS011;5860;52.018;8.536;2023-07-13T02:24:30;6.23;;;2.73;;
11608;SDS011;5860;52.018;8.536;2023-07-13T02:26:56;6.17;;;2.60;;
11608;SDS011;5860;52.018;8.536;2023-07-13T02:29:23;7.23;;;2.60;;
11608;SDS011;5860;52.018;8.536;2023-07-13T02:31:50;6.63;;;2.50;;
11608;SDS011;5860;52.018;8.536;2023-07-13T02:34:17;4.50;;;3.00;;
11608;SDS011;5860;52.018;8.536;2023-07-13T02:36:44;6.17;;;3.03;;
11608;SDS011;5860;52.018;8.536;2023-07-13T02:39:11;7.50;;;2.80;;
11608;SDS011;5860;52.018;8.536;2023-07-13T02:41:39;5.20;;;2.47;;
11608;SDS011;5860;52.018;8.536;2023-07-13T02:44:07;7.13;;;2.90;;
11608;SDS011;5860;52.018;8.536;2023-07-13T02:46:35;7.43;;;3.10;;
11608;SDS011;5860;52.018;8.536;2023-07-13T02:49:03;5.17;;;2.77;;
11608;SDS011;5860;52.018;8.536;2023-07-13T02:51:30;3.97;;;2.93;;
11608;SDS011;5860;52.018;8.536;2023-07-13T02:54:03;8.17;;;3.17;;
11608;SDS011;5860;52.018;8.536;2023-07-13T02:56:31;9.00;;;3.80;;
11608;SDS011;5860;52.018;8.536;2023-07-13T02:58:58;10.90;;;3.37;;
11608;SDS011;5860;52.018;8.536;2023-07-13T03:01:25;6.57;;;3.00;;
11608;SDS011;5860;52.018;8.536;2023-07-13T03:03:52;7.90;;;3.30;;
11608;SDS011;5860;52.018;8.536;2023-07-13T03:06:20;7.07;;;3.47;;
11608;SDS011;5860;52.018;8.536;2023-07-13T03:08:47;8.00;;;3.10;;
11608;SDS011;5860;52.018;8.536;2023-07-13T03:11:16;7.17;;;3.30;;
11608;SDS011;5860;52.018;8.536;2023-07-13T03:13:45;6.00;;;3.23;;
11608;SDS011;5860;52.018;8.536;2023-07-13T03:16:12;11.00;;;3.67;;
11608;SDS011;5860;52.018;8.536;2023-07-13T03:18:45;8.47;;;3.20;;
11608;SDS011;5860;52.018;8.536;2023-07-13T03:21:13;7.27;;;3.00;;
11608;SDS011;5860;52.018;8.536;2023-07-13T03:23:41;9.23;;;3.23;;
11608;SDS011;5860;52.018;8.536;2023-07-13T03:26:09;7.27;;;3.13;;
11608;SDS011;5860;52.018;8.536;2023-07-13T03:28:39;7.03;;;3.27;;
11608;SDS011;5860;52.018;8.536;2023-07-13T03:31:08;10.97;;;3.50;;
11608;SDS011;5860;52.018;8.536;2023-07-13T03:33:37;5.60;;;3.27;;
11608;SDS011;5860;52.018;8.536;2023-07-13T03:36:04;9.30;;;3.43;;
11608;SDS011;5860;52.018;8.536;2023-07-13T03:38:32;6.30;;;3.37;;
11608;SDS011;5860;52.018;8.536;2023-07-13T03:40:59;8.00;;;3.43;;
11608;SDS011;5860;52.018;8.536;2023-07-13T03:43:27;8.77;;;3.60;;
11608;SDS011;5860;52.018;8.536;2023-07-13T03:45:53;7.80;;;3.20;;
11608;SDS011;5860;52.018;8.536;2023-07-13T03:48:21;7.80;;;3.23;;
11608;SDS011;5860;52.018;8.536;2023-07-13T03:50:48;8.70;;;3.27;;
11608;SDS011;5860;52.018;8.536;2023-07-13T03:53:18;6.60;;;3.17;;
11608;SDS011;5860;52.018;8.536;2023-07-13T03:55:45;8.13;;;3.63;;
11608;SDS011;5860;52.018;8.536;2023-07-13T03:58:26;8.30;;;3.30;;
11608;SDS011;5860;52.018;8.536;2023-07-13T04:00:54;7.03;;;3.70;;
11608;SDS011;5860;52.018;8.536;2023-07-13T04:03:21;6.37;;;2.90;;
11608;SDS011;5860;52.018;8.536;2023-07-13T04:05:48;11.93;;;3.57;;
11608;SDS011;5860;52.018;8.536;2023-07-13T04:08:16;7.70;;;3.30;;
11608;SDS011;5860;52.018;8.536;2023-07-13T04:10:43;5.07;;;2.63;;
11608;SDS011;5860;52.018;8.536;2023-07-13T04:13:11;8.23;;;2.83;;
11608;SDS011;5860;52.018;8.536;2023-07-13T04:15:38;6.67;;;3.40;;
11608;SDS011;5860;52.018;8.536;2023-07-13T04:18:05;4.97;;;2.30;;
11608;SDS011;5860;52.018;8.536;2023-07-13T04:20:32;5.40;;;2.33;;
11608;SDS011;5860;52.018;8.536;2023-07-13T04:22:59;7.67;;;2.30;;
11608;SDS011;5860;52.018;8.536;2023-07-13T04:25:27;6.80;;;2.40;;
11608;SDS011;5860;52.018;8.536;2023-07-13T04:27:54;5.80;;;2.38;;
11608;SDS011;5860;52.018;8.536;2023-07-13T04:30:21;9.30;;;2.58;;
11608;SDS011;5860;52.018;8.536;2023-07-13T04:32:50;7.75;;;2.17;;
11608;SDS011;5860;52.018;8.536;2023-07-13T04:35:19;4.78;;;1.85;;
11608;SDS011;5860;52.018;8.536;2023-07-13T04:37:50;5.28;;;2.28;;
11608;SDS011;5860;52.018;8.536;2023-07-13T04:40:17;6.63;;;2.30;;
11608;SDS011;5860;52.018;8.536;2023-07-13T04:42:44;7.00;;;2.20;;
11608;SDS011;5860;52.018;8.536;2023-07-13T04:45:12;8.40;;;2.50;;
11608;SDS011;5860;52.018;8.536;2023-07-13T04:47:40;5.45;;;2.05;;
11608;SDS011;5860;52.018;8.536;2023-07-13T04:50:08;5.60;;;2.88;;
11608;SDS011;5860;52.018;8.536;2023-07-13T04:52:37;5.47;;;2.42;;
11608;SDS011;5860;52.018;8.536;2023-07-13T04:55:04;6.68;;;2.72;;
11608;SDS011;5860;52.018;8.536;2023-07-13T04:57:31;6.40;;;2.80;;
11608;SDS011;5860;52.018;8.536;2023-07-13T04:59:59;9.93;;;3.33;;
11608;SDS011;5860;52.018;8.536;2023-07-13T05:02:27;6.32;;;2.50;;
11608;SDS011;5860;52.018;8.536;2023-07-13T05:04:55;6.32;;;2.40;;
11608;SDS011;5860;52.018;8.536;2023-07-13T05:07:22;6.05;;;2.60;;
11608;SDS011;5860;52.018;8.536;2023-07-13T05:09:48;4.63;;;2.22;;
11608;SDS011;5860;52.018;8.536;2023-07-13T05:12:16;6.60;;;2.00;;
11608;SDS011;5860;52.018;8.536;2023-07-13T05:14:43;4.53;;;2.10;;
11608;SDS011;5860;52.018;8.536;2023-07-13T05:17:10;8.02;;;2.80;;
11608;SDS011;5860;52.018;8.536;2023-07-13T05:19:37;7.82;;;2.30;;
11608;SDS011;5860;52.018;8.536;2023-07-13T05:22:04;4.68;;;2.20;;
11608;SDS011;5860;52.018;8.536;2023-07-13T05:24:31;4.57;;;2.15;;
11608;SDS011;5860;52.018;8.536;2023-07-13T05:26:58;9.70;;;2.35;;
11608;SDS011;5860;52.018;8.536;2023-07-13T05:29:25;6.68;;;2.30;;
11608;SDS011;5860;52.018;8.536;2023-07-13T05:31:52;4.55;;;2.00;;
11608;SDS011;5860;52.018;8.536;2023-07-13T05:34:19;7.20;;;1.90;;
11608;SDS011;5860;52.018;8.536;2023-07-13T05:36:46;8.05;;;2.45;;
11608;SDS011;5860;52.018;8.536;2023-07-13T05:39:13;5.00;;;2.00;;
11608;SDS011;5860;52.018;8.536;2023-07-13T05:41:40;5.55;;;2.20;;
11608;SDS011;5860;52.018;8.536;2023-07-13T05:44:07;4.57;;;2.30;;
11608;SDS011;5860;52.018;8.536;2023-07-13T05:46:34;5.60;;;2.13;;
11608;SDS011;5860;52.018;8.536;2023-07-13T05:49:02;4.60;;;2.20;;
11608;SDS011;5860;52.018;8.536;2023-07-13T05:51:29;10.32;;;2.40;;
11608;SDS011;5860;52.018;8.536;2023-07-13T05:53:56;4.93;;;1.95;;
11608;SDS011;5860;52.018;8.536;2023-07-13T05:56:23;4.38;;;2.05;;
11608;SDS011;5860;52.018;8.536;2023-07-13T05:58:52;5.10;;;2.33;;
11608;SDS011;5860;52.018;8.536;2023-07-13T06:01:19;4.07;;;2.20;;
11608;SDS011;5860;52.018;8.536;2023-07-13T06:03:47;3.80;;;2.00;;
11608;SDS011;5860;52.018;8.536;2023-07-13T06:06:14;4.93;;;2.05;;
11608;SDS011;5860;52.018;8.536;2023-07-13T06:08:42;4.55;;;1.83;;
11608;SDS011;5860;52.018;8.536;2023-07-13T06:11:15;5.63;;;1.90;;
11608;SDS011;5860;52.018;8.536;2023-07-13T06:13:45;6.88;;;2.20;;
11608;SDS011;5860;52.018;8.536;2023-07-13T06:16:12;4.85;;;1.83;;
11608;SDS011;5860;52.018;8.536;2023-07-13T06:18:40;5.07;;;1.92;;
11608;SDS011;5860;52.018;8.536;2023-07-13T06:23:36;6.70;;;2.22;;
11608;SDS011;5860;52.018;8.536;2023-07-13T06:26:03;6.47;;;1.80;;
11608;SDS011;5860;52.018;8.536;2023-07-13T06:28:32;3.47;;;1.70;;
11608;SDS011;5860;52.018;8.536;2023-07-13T06:31:00;7.35;;;2.40;;
11608;SDS011;5860;52.018;8.536;2023-07-13T06:33:27;5.45;;;1.92;;
11608;SDS011;5860;52.018;8.536;2023-07-13T06:35:55;4.88;;;1.92;;
11608;SDS011;5860;52.018;8.536;2023-07-13T06:38:22;8.32;;;2.13;;
11608;SDS011;5860;52.018;8.536;2023-07-13T06:40:49;7.68;;;2.30;;
11608;SDS011;5860;52.018;8.536;2023-07-13T06:43:16;6.72;;;2.22;;
11608;SDS011;5860;52.018;8.536;2023-07-13T06:45:46;8.18;;;2.47;;
11608;SDS011;5860;52.018;8.536;2023-07-13T06:48:15;8.00;;;2.55;;
11608;SDS011;5860;52.018;8.536;2023-07-13T06:50:43;7.05;;;1.90;;
11608;SDS011;5860;52.018;8.536;2023-07-13T06:53:12;6.03;;;2.28;;
11608;SDS011;5860;52.018;8.536;2023-07-13T06:55:39;8.68;;;2.47;;
11608;SDS011;5860;52.018;8.536;2023-07-13T06:58:06;8.32;;;2.60;;
11608;SDS011;5860;52.018;8.536;2023-07-13T07:00:33;6.13;;;2.50;;
11608;SDS011;5860;52.018;8.536;2023-07-13T07:03:00;7.05;;;2.25;;
11608;SDS011;5860;52.018;8.536;2023-07-13T07:05:27;7.32;;;2.50;;
11608;SDS011;5860;52.018;8.536;2023-07-13T07:07:54;8.82;;;2.67;;
11608;SDS011;5860;52.018;8.536;2023-07-13T07:10:22;6.32;;;2.45;;
11608;SDS011;5860;52.018;8.536;2023-07-13T07:12:49;7.45;;;2.35;;
11608;SDS011;5860;52.018;8.536;2023-07-13T07:15:16;9.23;;;2.70;;
11608;SDS011;5860;52.018;8.536;2023-07-13T07:17:44;5.68;;;2.53;;
11608;SDS011;5860;52.018;8.536;2023-07-13T07:20:11;7.28;;;2.38;;
11608;SDS011;5860;52.018;8.536;2023-07-13T07:22:38;8.30;;;2.90;;
11608;SDS011;5860;52.018;8.536;2023-07-13T07:25:06;5.45;;;2.47;;
11608;SDS011;5860;52.018;8.536;2023-07-13T07:27:33;6.13;;;2.45;;
11608;SDS011;5860;52.018;8.536;2023-07-13T07:30:03;5.05;;;2.20;;
11608;SDS011;5860;52.018;8.536;2023-07-13T07:32:33;7.53;;;2.60;;
11608;SDS011;5860;52.018;8.536;2023-07-13T07:35:03;5.82;;;2.67;;
11608;SDS011;5860;52.018;8.536;2023-07-13T07:37:30;9.55;;;2.78;;
11608;SDS011;5860;52.018;8.536;2023-07-13T07:40:00;6.30;;;2.70;;
11608;SDS011;5860;52.018;8.536;2023-07-13T07:42:29;9.35;;;2.80;;
11608;SDS011;5860;52.018;8.536;2023-07-13T07:44:56;7.75;;;3.05;;
11608;SDS011;5860;52.018;8.536;2023-07-13T07:47:23;6.57;;;2.78;;
11608;SDS011;5860;52.018;8.536;2023-07-13T07:49:51;8.18;;;3.17;;
11608;SDS011;5860;52.018;8.536;2023-07-13T07:52:18;7.78;;;3.05;;
11608;SDS011;5860;52.018;8.536;2023-07-13T07:54:46;5.07;;;2.47;;
11608;SDS011;5860;52.018;8.536;2023-07-13T07:57:15;6.20;;;2.63;;
11608;SDS011;5860;52.018;8.536;2023-07-13T08:00:02;5.45;;;2.55;;
11608;SDS011;5860;52.018;8.536;2023-07-13T08:02:33;8.30;;;2.78;;
11608;SDS011;5860;52.018;8.536;2023-07-13T08:05:02;7.53;;;2.35;;
11608;SDS011;5860;52.018;8.536;2023-07-13T08:07:32;6.38;;;2.53;;
11608;SDS011;5860;52.018;8.536;2023-07-13T08:09:59;7.38;;;2.80;;
11608;SDS011;5860;52.018;8.536;2023-07-13T08:12:27;8.93;;;2.50;;
11608;SDS011;5860;52.018;8.536;2023-07-13T08:14:57;7.13;;;2.35;;
11608;SDS011;5860;52.018;8.536;2023-07-13T08:17:24;5.63;;;2.20;;
11608;SDS011;5860;52.018;8.536;2023-07-13T08:19:52;7.35;;;2.20;;
11608;SDS011;5860;52.018;8.536;2023-07-13T08:22:19;8.10;;;2.40;;
11608;SDS011;5860;52.018;8.536;2023-07-13T08:24:46;7.03;;;2.40;;
11608;SDS011;5860;52.018;8.536;2023-07-13T08:27:24;5.85;;;2.10;;
11608;SDS011;5860;52.018;8.536;2023-07-13T08:29:52;6.20;;;2.00;;
11608;SDS011;5860;52.018;8.536;2023-07-13T08:32:21;5.60;;;2.60;;
11608;SDS011;5860;52.018;8.536;2023-07-13T08:34:49;6.78;;;2.70;;
11608;SDS011;5860;52.018;8.536;2023-07-13T08:37:17;5.40;;;2.28;;
11608;SDS011;5860;52.018;8.536;2023-07-13T08:39:44;5.78;;;2.30;;
11608;SDS011;5860;52.018;8.536;2023-07-13T08:44:58;5.53;;;2.28;;
11608;SDS011;5860;52.018;8.536;2023-07-13T08:47:35;4.28;;;2.10;;
11608;SDS011;5860;52.018;8.536;2023-07-13T08:50:08;7.07;;;2.70;;
11608;SDS011;5860;52.018;8.536;2023-07-13T08:52:40;5.72;;;2.40;;
11608;SDS011;5860;52.018;8.536;2023-07-13T08:55:13;6.97;;;2.20;;
11608;SDS011;5860;52.018;8.536;2023-07-13T08:57:50;6.07;;;2.35;;
11608;SDS011;5860;52.018;8.536;2023-07-13T09:00:22;6.50;;;2.13;;
11608;SDS011;5860;52.018;8.536;2023-07-13T09:02:58;7.60;;;2.25;;
11608;SDS011;5860;52.018;8.536;2023-07-13T09:05:34;4.80;;;2.00;;
11608;SDS011;5860;52.018;8.536;2023-07-13T09:10:42;6.35;;;2.25;;
11608;SDS011;5860;52.018;8.536;2023-07-13T09:15:45;4.50;;;2.15;;
11608;SDS011;5860;52.018;8.536;2023-07-13T09:18:26;5.22;;;2.08;;
11608;SDS011;5860;52.018;8.536;2023-07-13T09:21:24;4.30;;;2.17;;
11608;SDS011;5860;52.018;8.536;2023-07-13T09:23:54;4.05;;;1.92;;
11608;SDS011;5860;52.018;8.536;2023-07-13T09:26:28;4.93;;;2.10;;
11608;SDS011;5860;52.018;8.536;2023-07-13T09:29:03;6.78;;;1.83;;
11608;SDS011;5860;52.018;8.536;2023-07-13T09:31:42;4.97;;;2.25;;
11608;SDS011;5860;52.018;8.536;2023-07-13T09:34:13;3.28;;;1.80;;
11608;SDS011;5860;52.018;8.536;2023-07-13T09:36:40;5.10;;;2.08;;
11608;SDS011;5860;52.018;8.536;2023-07-13T09:44:18;6.20;;;2.25;;
11608;SDS011;5860;52.018;8.536;2023-07-13T09:46:57;4.80;;;2.08;;
11608;SDS011;5860;52.018;8.536;2023-07-13T09:49:28;6.50;;;2.30;;
11608;SDS011;5860;52.018;8.536;2023-07-13T09:52:00;6.60;;;2.10;;
11608;SDS011;5860;52.018;8.536;2023-07-13T09:54:33;6.25;;;2.40;;
11608;SDS011;5860;52.018;8.536;2023-07-13T09:57:02;4.70;;;2.47;;
11608;SDS011;5860;52.018;8.536;2023-07-13T09:59:40;5.45;;;2.30;;
11608;SDS011;5860;52.018;8.536;2023-07-13T10:02:24;7.20;;;2.33;;
11608;SDS011;5860;52.018;8.536;2023-07-13T10:04:55;5.88;;;2.38;;
11608;SDS011;5860;52.018;8.536;2023-07-13T10:07:24;3.80;;;2.30;;
11608;SDS011;5860;52.018;8.536;2023-07-13T10:09:58;6.95;;;2.40;;
11608;SDS011;5860;52.018;8.536;2023-07-13T10:12:30;4.50;;;2.42;;
11608;SDS011;5860;52.018;8.536;2023-07-13T10:15:02;5.13;;;2.33;;
11608;SDS011;5860;52.018;8.536;2023-07-13T10:17:49;5.72;;;1.85;;
11608;SDS011;5860;52.018;8.536;2023-07-13T10:20:19;6.20;;;2.78;;
11608;SDS011;5860;52.018;8.536;2023-07-13T10:22:58;5.63;;;2.22;;
11608;SDS011;5860;52.018;8.536;2023-07-13T10:25:32;4.82;;;2.28;;
11608;SDS011;5860;52.018;8.536;2023-07-13T10:28:25;4.70;;;1.83;;
11608;SDS011;5860;52.018;8.536;2023-07-13T10:30:59;5.57;;;2.15;;
11608;SDS011;5860;52.018;8.536;2023-07-13T10:33:27;4.13;;;2.47;;
11608;SDS011;5860;52.018;8.536;2023-07-13T10:35:57;3.20;;;2.22;;
11608;SDS011;5860;52.018;8.536;2023-07-13T10:38:47;3.75;;;2.50;;
11608;SDS011;5860;52.018;8.536;2023-07-13T10:41:20;4.32;;;2.33;;
11608;SDS011;5860;52.018;8.536;2023-07-13T10:43:50;6.03;;;2.40;;
11608;SDS011;5860;52.018;8.536;2023-07-13T10:46:20;3.42;;;2.30;;
11608;SDS011;5860;52.018;8.536;2023-07-13T10:48:51;4.65;;;2.50;;
11608;SDS011;5860;52.018;8.536;2023-07-13T10:51:21;3.80;;;2.00;;
11608;SDS011;5860;52.018;8.536;2023-07-13T10:56:46;3.53;;;2.92;;
11608;SDS011;5860;52.018;8.536;2023-07-13T10:59:27;5.60;;;2.65;;
11608;SDS011;5860;52.018;8.536;2023-07-13T11:04:41;4.22;;;2.80;;
11608;SDS011;5860;52.018;8.536;2023-07-13T11:07:21;4.82;;;2.67;;
11608;SDS011;5860;52.018;8.536;2023-07-13T11:10:02;6.93;;;3.80;;
11608;SDS011;5860;52.018;8.536;2023-07-13T11:15:13;5.43;;;3.67;;
11608;SDS011;5860;52.018;8.536;2023-07-13T11:17:50;3.47;;;3.08;;
11608;SDS011;5860;52.018;8.536;2023-07-13T11:20:34;7.38;;;3.30;;
11608;SDS011;5860;52.018;8.536;2023-07-13T11:25:39;4.72;;;2.75;;
11608;SDS011;5860;52.018;8.536;2023-07-13T11:30:37;5.93;;;3.17;;
11608;SDS011;5860;52.018;8.536;2023-07-13T11:35:36;5.63;;;2.95;;
11608;SDS011;5860;52.018;8.536;2023-07-13T11:38:18;5.40;;;2.58;;
11608;SDS011;5860;52.018;8.536;2023-07-13T11:40:54;5.50;;;2.55;;
11608;SDS011;5860;52.018;8.536;2023-07-13T11:43:22;4.95;;;2.40;;
11608;SDS011;5860;52.018;8.536;2023-07-13T11:45:50;5.75;;;2.33;;
11608;SDS011;5860;52.018;8.536;2023-07-13T11:48:25;4.93;;;2.45;;
11608;SDS011;5860;52.018;8.536;2023-07-13T11:50:56;5.22;;;2.50;;
11608;SDS011;5860;52.018;8.536;2023-07-13T11:53:30;4.75;;;2.50;;
11608;SDS011;5860;52.018;8.536;2023-07-13T11:56:05;5.35;;;2.63;;
11608;SDS011;5860;52.018;8.536;2023-07-13T11:58:33;4.57;;;2.22;;
11608;SDS011;5860;52.018;8.536;2023-07-13T12:01:01;3.67;;;2.00;;
11608;SDS011;5860;52.018;8.536;2023-07-13T12:03:31;4.38;;;2.30;;
11608;SDS011;5860;52.018;8.536;2023-07-13T12:06:05;3.97;;;2.50;;
11608;SDS011;5860;52.018;8.536;2023-07-13T12:08:49;5.43;;;2.10;;
11608;SDS011;5860;52.018;8.536;2023-07-13T12:11:16;5.18;;;2.20;;
11608;SDS011;5860;52.018;8.536;2023-07-13T12:13:44;3.55;;;2.13;;
11608;SDS011;5860;52.018;8.536;2023-07-13T12:16:15;4.32;;;2.13;;
11608;SDS011;5860;52.018;8.536;2023-07-13T12:18:46;4.05;;;2.55;;
11608;SDS011;5860;52.018;8.536;2023-07-13T12:21:16;7.03;;;2.40;;
11608;SDS011;5860;52.018;8.536;2023-07-13T12:23:47;3.83;;;2.20;;
11608;SDS011;5860;52.018;8.536;2023-07-13T12:26:15;4.97;;;2.30;;
11608;SDS011;5860;52.018;8.536;2023-07-13T12:28:45;2.83;;;2.30;;
11608;SDS011;5860;52.018;8.536;2023-07-13T12:34:06;4.97;;;2.70;;
11608;SDS011;5860;52.018;8.536;2023-07-13T12:36:48;5.65;;;3.00;;
11608;SDS011;5860;52.018;8.536;2023-07-13T12:42:09;4.03;;;2.65;;
11608;SDS011;5860;52.018;8.536;2023-07-13T12:44:50;3.90;;;2.50;;
11608;SDS011;5860;52.018;8.536;2023-07-13T12:47:21;6.00;;;2.67;;
11608;SDS011;5860;52.018;8.536;2023-07-13T12:49:49;4.20;;;2.67;;
11608;SDS011;5860;52.018;8.536;2023-07-13T12:52:21;3.90;;;2.47;;
11608;SDS011;5860;52.018;8.536;2023-07-13T12:54:58;4.88;;;2.88;;
11608;SDS011;5860;52.018;8.536;2023-07-13T12:57:37;4.43;;;2.50;;
11608;SDS011;5860;52.018;8.536;2023-07-13T13:00:14;4.00;;;2.33;;
11608;SDS011;5860;52.018;8.536;2023-07-13T13:02:56;3.42;;;2.30;;
11608;SDS011;5860;52.018;8.536;2023-07-13T13:05:44;5.78;;;2.83;;
11608;SDS011;5860;52.018;8.536;2023-07-13T13:08:11;4.90;;;2.63;;
11608;SDS011;5860;52.018;8.536;2023-07-13T13:10:39;3.85;;;2.85;;
11608;SDS011;5860;52.018;8.536;2023-07-13T13:13:06;5.57;;;2.72;;
11608;SDS011;5860;52.018;8.536;2023-07-13T13:15:34;3.58;;;2.40;;
11608;SDS011;5860;52.018;8.536;2023-07-13T13:18:08;4.28;;;2.22;;
11608;SDS011;5860;52.018;8.536;2023-07-13T13:20:50;2.55;;;2.00;;
11608;SDS011;5860;52.018;8.536;2023-07-13T13:23:19;5.72;;;2.20;;
11608;SDS011;5860;52.018;8.536;2023-07-13T13:25:48;2.45;;;1.83;;
11608;SDS011;5860;52.018;8.536;2023-07-13T13:28:18;3.25;;;1.75;;
11608;SDS011;5860;52.018;8.536;2023-07-13T13:30:48;3.28;;;1.98;;
11608;SDS011;5860;52.018;8.536;2023-07-13T13:33:17;3.08;;;1.60;;
11608;SDS011;5860;52.018;8.536;2023-07-13T13:35:46;3.65;;;1.77;;
11608;SDS011;5860;52.018;8.536;2023-07-13T13:38:15;6.00;;;2.10;;
11608;SDS011;5860;52.018;8.536;2023-07-13T13:40:44;4.25;;;2.22;;
11608;SDS011;5860;52.018;8.536;2023-07-13T13:43:15;4.32;;;1.65;;
11608;SDS011;5860;52.018;8.536;2023-07-13T13:45:53;3.50;;;1.70;;
11608;SDS011;5860;52.018;8.536;2023-07-13T13:48:30;6.25;;;2.25;;
11608;SDS011;5860;52.018;8.536;2023-07-13T13:51:05;4.78;;;2.22;;
11608;SDS011;5860;52.018;8.536;2023-07-13T13:53:40;6.30;;;2.70;;
11608;SDS011;5860;52.018;8.536;2023-07-13T13:56:08;3.45;;;2.15;;
11608;SDS011;5860;52.018;8.536;2023-07-13T13:58:36;3.22;;;2.17;;
11608;SDS011;5860;52.018;8.536;2023-07-13T14:01:03;5.07;;;2.50;;
11608;SDS011;5860;52.018;8.536;2023-07-13T14:03:34;5.53;;;2.70;;
11608;SDS011;5860;52.018;8.536;2023-07-13T14:06:01;5.45;;;2.95;;
11608;SDS011;5860;52.018;8.536;2023-07-13T14:08:28;4.00;;;2.60;;
11608;SDS011;5860;52.018;8.536;2023-07-13T14:10:56;4.10;;;2.37;;
11608;SDS011;5860;52.018;8.536;2023-07-13T14:13:26;3.80;;;2.40;;
11608;SDS011;5860;52.018;8.536;2023-07-13T14:16:02;4.83;;;3.10;;
11608;SDS011;5860;52.018;8.536;2023-07-13T14:18:34;7.30;;;3.10;;
11608;SDS011;5860;52.018;8.536;2023-07-13T14:21:01;5.30;;;2.90;;
11608;SDS011;5860;52.018;8.536;2023-07-13T14:23:28;6.00;;;2.87;;
11608;SDS011;5860;52.018;8.536;2023-07-13T14:25:54;4.30;;;2.53;;
11608;SDS011;5860;52.018;8.536;2023-07-13T14:28:25;7.05;;;2.92;;
11608;SDS011;5860;52.018;8.536;2023-07-13T14:30:53;5.83;;;2.70;;
11608;SDS011;5860;52.018;8.536;2023-07-13T14:33:23;4.63;;;2.50;;
11608;SDS011;5860;52.018;8.536;2023-07-13T14:35:50;6.25;;;2.80;;
11608;SDS011;5860;52.018;8.536;2023-07-13T14:38:19;3.80;;;2.40;;
11608;SDS011;5860;52.018;8.536;2023-07-13T14:40:46;4.53;;;2.88;;
11608;SDS011;5860;52.018;8.536;2023-07-13T14:43:14;6.10;;;2.93;;
11608;SDS011;5860;52.018;8.536;2023-07-13T14:45:46;6.27;;;3.30;;
11608;SDS011;5860;52.018;8.536;2023-07-13T14:48:18;6.90;;;3.53;;
11608;SDS011;5860;52.018;8.536;2023-07-13T14:50:53;6.13;;;2.93;;
11608;SDS011;5860;52.018;8.536;2023-07-13T14:53:24;5.73;;;3.30;;
11608;SDS011;5860;52.018;8.536;2023-07-13T14:55:54;2.80;;;1.98;;
11608;SDS011;5860;52.018;8.536;2023-07-13T14:58:20;4.37;;;2.10;;
11608;SDS011;5860;52.018;8.536;2023-07-13T15:00:47;3.83;;;2.10;;
11608;SDS011;5860;52.018;8.536;2023-07-13T15:03:17;2.90;;;1.80;;
11608;SDS011;5860;52.018;8.536;2023-07-13T15:05:51;4.07;;;2.03;;
11608;SDS011;5860;52.018;8.536;2023-07-13T15:08:19;4.17;;;2.23;;
11608;SDS011;5860;52.018;8.536;2023-07-13T15:10:46;3.73;;;2.47;;
11608;SDS011;5860;52.018;8.536;2023-07-13T15:15:48;3.10;;;2.20;;
11608;SDS011;5860;52.018;8.536;2023-07-13T15:18:18;3.90;;;2.33;;
11608;SDS011;5860;52.018;8.536;2023-07-13T15:20:47;3.43;;;2.27;;
11608;SDS011;5860;52.018;8.536;2023-07-13T15:23:16;3.77;;;1.87;;
11608;SDS011;5860;52.018;8.536;2023-07-13T15:25:44;4.50;;;2.40;;
11608;SDS011;5860;52.018;8.536;2023-07-13T15:28:12;4.77;;;2.73;;
11608;SDS011;5860;52.018;8.536;2023-07-13T15:30:47;3.50;;;2.43;;
11608;SDS011;5860;52.018;8.536;2023-07-13T15:35:47;4.37;;;2.80;;
11608;SDS011;5860;52.018;8.536;2023-07-13T15:38:18;4.83;;;2.57;;
11608;SDS011;5860;52.018;8.536;2023-07-13T15:40:47;5.23;;;3.07;;
11608;SDS011;5860;52.018;8.536;2023-07-13T15:43:15;4.00;;;2.83;;
11608;SDS011;5860;52.018;8.536;2023-07-13T15:45:44;3.60;;;2.50;;
11608;SDS011;5860;52.018;8.536;2023-07-13T15:48:17;4.80;;;2.90;;
11608;SDS011;5860;52.018;8.536;2023-07-13T15:50:46;5.43;;;3.27;;
11608;SDS011;5860;52.018;8.536;2023-07-13T15:53:16;4.47;;;3.10;;
11608;SDS011;5860;52.018;8.536;2023-07-13T15:55:49;4.53;;;2.70;;
11608;SDS011;5860;52.018;8.536;2023-07-13T15:58:17;5.07;;;3.30;;
11608;SDS011;5860;52.018;8.536;2023-07-13T16:00:45;6.53;;;3.00;;